Time;durP1;ratioP1;P1;durP2;ratioP2;P2;SDS_P1;SDS_P2;PMS_P1;PMS_P2;Temp;Humidity;BMP_temperature;BMP_pressure;BME280_temperature;BME280_humidity;BME280_pressure;Samples;Min_cycle;Max_cycle;Signal;HPM_P1;HPM_P2
2022/12/06 00:02:16;;;;;;;18.88;11.88;;;;;;;4.21;100.00;101873.50;5227790;28;20037;-74
2022/12/06 00:04:47;;;;;;;22.83;13.27;;;;;;;4.17;100.00;101882.44;5227398;28;20468;-74
2022/12/06 00:07:19;;;;;;;21.38;12.88;;;;;;;4.14;100.00;101872.84;5231279;28;20037;-74
2022/12/06 00:09:50;;;;;;;22.98;13.07;;;;;;;4.13;100.00;101877.25;5229115;28;20428;-74
2022/12/06 00:12:21;;;;;;;18.58;12.00;;;;;;;4.12;100.00;101872.91;5232242;28;20029;-74
2022/12/06 00:14:53;;;;;;;20.38;12.13;;;;;;;4.12;100.00;101875.53;5231201;28;20499;-74
2022/12/06 00:17:24;;;;;;;22.52;12.88;;;;;;;4.12;100.00;101874.66;5229352;28;20059;-73
2022/12/06 00:19:55;;;;;;;20.83;12.00;;;;;;;4.12;100.00;101874.66;5227105;28;20025;-74
2022/12/06 00:22:27;;;;;;;20.92;12.50;;;;;;;4.11;100.00;101879.09;5229776;28;20037;-73
2022/12/06 00:24:58;;;;;;;19.95;12.18;;;;;;;4.13;100.00;101877.25;5230378;28;20036;-74
2022/12/06 00:27:29;;;;;;;21.35;12.30;;;;;;;4.13;100.00;101879.03;5230224;28;20033;-73
2022/12/06 00:30:01;;;;;;;20.92;12.23;;;;;;;4.13;100.00;101876.41;5231616;28;20033;-74
2022/12/06 00:32:32;;;;;;;19.65;12.85;;;;;;;4.13;100.00;101868.47;5228465;28;20511;-73
2022/12/06 00:35:04;;;;;;;20.10;12.43;;;;;;;4.13;100.00;101869.34;5228513;28;20034;-74
2022/12/06 00:37:36;;;;;;;21.65;12.43;;;;;;;4.13;100.00;101871.97;5228139;28;20029;-74
2022/12/06 00:40:08;;;;;;;20.25;12.35;;;;;;;4.13;100.00;101871.97;5226553;28;20033;-74
2022/12/06 00:42:39;;;;;;;22.98;12.77;;;;;;;4.12;100.00;101870.25;5230258;28;20025;-73
2022/12/06 00:45:10;;;;;;;20.05;12.48;;;;;;;4.13;100.00;101871.97;5227759;28;20112;-74
2022/12/06 00:47:41;;;;;;;20.42;12.38;;;;;;;4.16;100.00;101871.03;5231279;28;20029;-73
2022/12/06 00:50:13;;;;;;;19.85;12.10;;;;;;;4.16;100.00;101870.16;5226162;28;20064;-74
2022/12/06 00:52:44;;;;;;;20.50;11.95;;;;;;;4.16;100.00;101871.03;5226147;28;20031;-74
2022/12/06 00:55:15;;;;;;;19.63;12.52;;;;;;;4.18;100.00;101857.75;5227599;28;20057;-73
2022/12/06 00:57:47;;;;;;;20.33;12.32;;;;;;;4.15;100.00;101873.72;5227059;28;20696;-73
2022/12/06 01:00:19;;;;;;;19.33;12.20;;;;;;;4.12;100.00;101864.09;5225282;28;20044;-73
2022/12/06 01:02:50;;;;;;;19.83;12.18;;;;;;;4.12;100.00;101870.25;5229542;28;20034;-74
2022/12/06 01:05:21;;;;;;;18.45;11.55;;;;;;;4.12;100.00;101872.91;5228226;28;20021;-73
2022/12/06 01:07:53;;;;;;;18.10;11.75;;;;;;;4.12;100.00;101880.81;5229298;28;20032;-73
2022/12/06 01:10:25;;;;;;;18.83;11.52;;;;;;;4.12;100.00;101869.38;5225334;28;20036;-73
2022/12/06 01:12:56;;;;;;;17.02;11.73;;;;;;;4.12;100.00;101870.25;5227232;28;20039;-74
2022/12/06 01:15:27;;;;;;;19.77;11.82;;;;;;;4.13;100.00;101869.34;5226799;28;20040;-74
2022/12/06 01:17:59;;;;;;;19.77;11.25;;;;;;;4.13;100.00;101871.97;5227863;28;20519;-74
2022/12/06 01:20:30;;;;;;;17.45;11.30;;;;;;;4.17;100.00;101870.09;5227374;28;20033;-73
2022/12/06 01:23:01;;;;;;;19.70;11.93;;;;;;;4.13;100.00;101874.63;5224536;28;20025;-74
2022/12/06 01:25:32;;;;;;;19.48;11.27;;;;;;;4.13;100.00;101871.97;5227574;28;20029;-73
2022/12/06 01:28:04;;;;;;;17.70;11.18;;;;;;;4.13;100.00;101871.13;5228218;28;20435;-73
2022/12/06 01:30:38;;;;;;;18.52;11.68;;;;;;;4.13;100.00;101873.75;5232680;28;20864;-74
2022/12/06 01:33:09;;;;;;;;;;;;;;;4.17;100.00;101870.09;5231864;28;20108;-73
2022/12/06 01:35:41;;;;;;;18.42;10.52;;;;;;;4.13;100.00;101874.63;5229645;28;19978;-73
2022/12/06 01:38:12;;;;;;;17.88;10.32;;;;;;;4.13;100.00;101879.91;5228515;28;20021;-74
2022/12/06 01:40:46;;;;;;;20.55;10.45;;;;;;;4.14;100.00;101875.47;5232990;28;20037;-74
2022/12/06 01:43:33;;;;;;;20.17;11.10;;;;;;;4.16;100.00;101878.06;5229918;28;20394;-73
2022/12/06 01:46:32;;;;;;;22.92;11.35;;;;;;;4.14;100.00;101870.19;5232346;28;20158;-73
2022/12/06 01:49:08;;;;;;;20.98;11.55;;;;;;;4.14;100.00;101870.19;5229373;28;20128;-73
2022/12/06 01:51:44;;;;;;;21.88;11.35;;;;;;;4.12;100.00;101864.09;5233069;28;20041;-73
2022/12/06 01:54:19;;;;;;;23.02;11.00;;;;;;;4.14;100.00;101862.25;5229334;28;20373;-73
2022/12/06 01:56:52;;;;;;;21.90;12.40;;;;;;;4.16;100.00;101865.75;5230829;28;20068;-73
2022/12/06 01:59:25;;;;;;;19.88;10.85;;;;;;;4.18;100.00;101860.38;5229971;28;20029;-74
2022/12/06 02:01:57;;;;;;;21.25;11.30;;;;;;;4.19;100.00;101855.06;5228599;28;20388;-74
2022/12/06 02:04:29;;;;;;;21.08;11.38;;;;;;;4.19;100.00;101867.41;5232200;28;20029;-74
2022/12/06 02:07:01;;;;;;;19.70;10.52;;;;;;;4.21;100.00;101868.22;5234425;28;20025;-73
2022/12/06 02:09:33;;;;;;;21.13;11.23;;;;;;;4.22;100.00;101865.53;5230366;28;20120;-73
2022/12/06 02:12:11;;;;;;;20.20;10.93;;;;;;;4.26;100.00;101871.59;5232750;28;20396;-74
2022/12/06 02:14:47;;;;;;;20.48;10.57;;;;;;;4.22;100.00;101860.25;5229492;28;20483;-74
2022/12/06 02:17:49;;;;;;;18.08;10.25;;;;;;;4.22;100.00;101865.53;5229167;28;20039;-73
2022/12/06 02:20:26;;;;;;;17.52;10.38;;;;;;;4.21;100.00;101865.59;5229886;28;20026;-73
2022/12/06 02:23:31;;;;;;;14.57;8.80;;;;;;;4.23;100.00;101859.31;5230346;28;20037;-73
2022/12/06 02:26:11;;;;;;;;;;;;;;;4.21;100.00;101858.50;5225580;28;20210;-73
2022/12/06 02:28:48;;;;;;;15.43;8.85;;;;;;;4.16;100.00;101864.84;5229047;28;19917;-73
2022/12/06 02:31:27;;;;;;;17.30;9.65;;;;;;;4.15;100.00;101861.38;5228156;28;20402;-73
2022/12/06 02:34:25;;;;;;;15.73;9.15;;;;;;;4.19;100.00;101859.50;5227286;28;20037;-74
2022/12/06 02:37:05;;;;;;;16.40;9.40;;;;;;;4.16;100.00;101864.84;5229201;28;20561;-73
2022/12/06 02:39:48;;;;;;;17.08;8.30;;;;;;;4.16;100.00;101844.63;5224884;28;20025;-73
2022/12/06 02:42:27;;;;;;;13.38;8.30;;;;;;;4.19;100.00;101859.50;5221653;28;20034;-74
2022/12/06 02:45:03;;;;;;;14.20;8.48;;;;;;;4.16;100.00;101855.19;5229150;28;20037;-73
2022/12/06 02:47:36;;;;;;;15.60;9.02;;;;;;;4.14;100.00;101851.69;5233908;28;20064;-74
2022/12/06 02:50:15;;;;;;;13.60;8.20;;;;;;;4.16;100.00;101851.66;5227679;28;20072;-74
2022/12/06 02:52:52;;;;;;;15.80;8.35;;;;;;;4.15;100.00;101852.59;5227054;28;20053;-74
2022/12/06 02:55:26;;;;;;;16.73;8.98;;;;;;;4.13;100.00;101845.56;5226138;28;20049;-73
2022/12/06 02:57:57;;;;;;;18.33;8.70;;;;;;;4.14;100.00;101849.06;5231602;28;20029;-74
2022/12/06 03:00:30;;;;;;;15.20;8.77;;;;;;;4.15;100.00;101848.16;5226227;28;20589;-74
2022/12/06 03:03:22;;;;;;;14.35;7.97;;;;;;;4.15;100.00;101842.03;5225948;28;20026;-74
2022/12/06 03:06:08;;;;;;;17.83;8.68;;;;;;;4.14;100.00;101838.50;5224645;28;20507;-74
2022/12/06 03:09:31;;;;;;;18.73;9.25;;;;;;;4.15;100.00;101839.38;5228692;28;20552;-74
2022/12/06 03:12:09;;;;;;;19.25;8.85;;;;;;;4.10;100.00;101839.50;5230727;28;20051;-74
2022/12/06 03:15:04;;;;;;;14.13;8.02;;;;;;;4.10;100.00;101843.03;5226892;28;20527;-73
2022/12/06 03:17:41;;;;;;;15.63;8.67;;;;;;;4.11;100.00;101852.69;5227153;28;20033;-74
2022/12/06 03:20:41;;;;;;;14.75;8.90;;;;;;;4.19;100.00;101846.28;5227462;28;20021;-74
2022/12/06 03:23:18;;;;;;;16.52;8.60;;;;;;;4.17;100.00;101848.13;5226026;28;20625;-73
2022/12/06 03:25:51;;;;;;;17.15;9.15;;;;;;;4.12;100.00;101853.53;5226121;28;20372;-73
2022/12/06 03:28:23;;;;;;;21.38;9.77;;;;;;;4.13;100.00;101857.91;5226024;28;20296;-74
2022/12/06 03:31:00;;;;;;;20.02;9.68;;;;;;;4.13;100.00;101857.91;5230911;28;20415;-73
2022/12/06 03:33:33;;;;;;;16.38;9.40;;;;;;;4.10;100.00;101858.88;5228435;28;20510;-74
2022/12/06 03:36:06;;;;;;;18.73;10.63;;;;;;;4.09;100.00;101853.66;5228186;28;20029;-73
2022/12/06 03:39:03;;;;;;;16.50;9.07;;;;;;;4.09;100.00;101854.50;5226393;28;20033;-74
2022/12/06 03:41:42;;;;;;;18.73;9.32;;;;;;;4.07;100.00;101858.13;5224236;28;20044;-74
2022/12/06 03:44:14;;;;;;;20.05;9.60;;;;;;;4.07;100.00;101853.69;5231899;28;20187;-74
2022/12/06 03:46:53;;;;;;;16.50;8.85;;;;;;;4.06;100.00;101859.03;5228938;28;20660;-74
2022/12/06 03:49:34;;;;;;;19.45;9.50;;;;;;;4.06;100.00;101856.38;5226661;28;20029;-74
2022/12/06 03:52:07;;;;;;;19.40;9.90;;;;;;;4.07;100.00;101855.47;5228531;28;20029;-74
2022/12/06 03:54:39;;;;;;;22.15;10.18;;;;;;;4.07;100.00;101850.19;5227504;28;20038;-73
2022/12/06 03:57:10;;;;;;;19.40;10.27;;;;;;;4.05;100.00;101842.31;5226321;28;20479;-74
2022/12/06 03:59:42;;;;;;;19.85;11.18;;;;;;;4.06;100.00;101854.59;5228231;28;20021;-74
2022/12/06 04:02:13;;;;;;;19.92;10.95;;;;;;;4.06;100.00;101848.47;5227898;28;20021;-74
2022/12/06 04:04:44;;;;;;;23.00;11.02;;;;;;;4.07;100.00;101850.19;5227309;28;20056;-74
2022/12/06 04:07:20;;;;;;;23.20;11.57;;;;;;;4.04;100.00;101851.16;5230523;28;20498;-74
2022/12/06 04:09:51;;;;;;;22.70;11.93;;;;;;;4.05;100.00;101854.66;5226035;28;20033;-73
2022/12/06 04:15:13;;;;;;;25.95;11.75;;;;;;;4.03;100.00;101838.03;5225061;28;20041;-74
2022/12/06 04:23:31;;;;;;;24.52;11.85;;;;;;;4.02;100.00;101845.06;5228923;28;20053;-74
2022/12/06 04:26:04;;;;;;;24.15;11.43;;;;;;;4.02;100.00;101849.47;5225791;28;20132;-74
2022/12/06 04:39:57;;;;;;;28.00;11.70;;;;;;;4.03;100.00;101856.50;5225707;28;20033;-74
2022/12/06 04:45:18;;;;;;;27.75;12.35;;;;;;;4.04;100.00;101856.44;5228551;28;20403;-74
2022/12/06 04:47:49;;;;;;;25.75;12.93;;;;;;;4.04;100.00;101848.50;5226682;28;20037;-74
2022/12/06 04:50:21;;;;;;;31.20;12.85;;;;;;;4.03;100.00;101848.59;5227782;28;20033;-74
2022/12/06 04:52:52;;;;;;;25.52;12.68;;;;;;;4.04;100.00;101847.66;5229409;28;20108;-74
2022/12/06 04:55:23;;;;;;;24.55;12.15;;;;;;;4.05;100.00;101849.38;5226495;28;20503;-74
2022/12/06 04:57:55;;;;;;;25.00;12.32;;;;;;;4.04;100.00;101856.44;5225527;28;20395;-74
2022/12/06 05:00:26;;;;;;;25.92;12.57;;;;;;;4.03;100.00;101849.44;5227374;28;20495;-74
2022/12/06 05:02:57;;;;;;;28.95;12.63;;;;;;;4.03;100.00;101853.88;5229308;28;20636;-74
2022/12/06 05:05:28;;;;;;;27.88;11.80;;;;;;;4.03;100.00;101845.94;5228791;28;20518;-74
2022/12/06 05:08:00;;;;;;;26.30;12.40;;;;;;;4.03;100.00;101846.78;5232073;28;20482;-74
2022/12/06 05:10:31;;;;;;;27.55;11.95;;;;;;;4.03;100.00;101844.16;5229190;28;20570;-74
2022/12/06 05:13:03;;;;;;;26.70;12.00;;;;;;;4.02;100.00;101847.69;5228475;28;20033;-74
2022/12/06 05:15:34;;;;;;;25.00;11.82;;;;;;;4.02;100.00;101852.97;5231882;28;20028;-74
2022/12/06 05:18:06;;;;;;;24.52;12.07;;;;;;;4.05;100.00;101844.97;5229909;28;20115;-74
2022/12/06 05:20:37;;;;;;;24.17;11.05;;;;;;;4.04;100.00;101837.94;5230566;28;20053;-74
2022/12/06 05:23:08;;;;;;;24.50;12.68;;;;;;;4.02;100.00;101839.78;5230492;28;20449;-74
2022/12/06 05:25:39;;;;;;;26.25;11.60;;;;;;;4.02;100.00;101838.91;5222458;28;20242;-74
2022/12/06 05:28:11;;;;;;;27.52;13.07;;;;;;;4.03;100.00;101845.94;5224146;28;20075;-74
2022/12/06 05:30:42;;;;;;;26.35;12.70;;;;;;;4.01;100.00;101843.34;5231027;28;20032;-74
2022/12/06 05:33:13;;;;;;;25.63;12.85;;;;;;;4.04;100.00;101839.72;5228605;28;20095;-74
2022/12/06 05:35:44;;;;;;;21.83;11.90;;;;;;;4.03;100.00;101840.66;5228532;28;20136;-74
2022/12/06 05:38:16;;;;;;;27.55;13.48;;;;;;;4.02;100.00;101845.06;5227554;28;20029;-74
2022/12/06 05:40:48;;;;;;;29.52;12.65;;;;;;;4.01;100.00;101832.78;5232074;28;20033;-75
2022/12/06 05:43:19;;;;;;;27.73;13.32;;;;;;;4.01;100.00;101834.53;5231472;28;20490;-74
2022/12/06 05:45:54;;;;;;;29.38;14.13;;;;;;;4.01;100.00;101840.69;5230753;28;20036;-74
2022/12/06 05:48:26;;;;;;;27.45;13.57;;;;;;;4.01;100.00;101840.69;5230772;28;20035;-74
2022/12/06 05:50:57;;;;;;;21.02;12.05;;;;;;;4.00;100.00;101846.03;5232012;28;20492;-74
2022/12/06 05:53:29;;;;;;;25.00;11.82;;;;;;;3.98;100.00;101839.94;5234302;28;20635;-74
2022/12/06 05:56:10;;;;;;;24.73;11.73;;;;;;;4.00;100.00;101841.59;5228939;28;20487;-75
2022/12/06 05:58:41;;;;;;;23.10;11.48;;;;;;;3.98;100.00;101840.78;5232135;28;20035;-74
2022/12/06 06:01:12;;;;;;;27.30;12.20;;;;;;;3.99;100.00;101847.81;5231413;28;20037;-74
2022/12/06 06:03:44;;;;;;;29.33;13.00;;;;;;;3.97;100.00;101844.38;5230742;28;20025;-74
2022/12/06 06:06:15;;;;;;;24.65;11.32;;;;;;;3.99;100.00;101844.28;5233046;28;20546;-74
2022/12/06 06:08:46;;;;;;;22.77;12.05;;;;;;;3.99;100.00;101841.66;5234199;28;20072;-75
2022/12/06 06:11:18;;;;;;;19.80;10.68;;;;;;;3.97;100.00;101840.84;5233078;28;20033;-74
2022/12/06 06:13:49;;;;;;;20.08;10.68;;;;;;;3.94;100.00;101852.38;5231719;28;20211;-74
2022/12/06 06:16:21;;;;;;;18.98;9.48;;;;;;;3.93;100.00;101843.59;5232498;28;20025;-74
2022/12/06 06:18:52;;;;;;;20.90;10.10;;;;;;;3.91;100.00;101848.06;5225449;28;20682;-74
2022/12/06 06:21:23;;;;;;;23.02;10.77;;;;;;;3.91;100.00;101850.72;5235017;28;20038;-74
2022/12/06 06:23:55;;;;;;;19.85;10.85;;;;;;;3.92;100.00;101852.41;5233209;28;20053;-74
2022/12/06 06:26:28;;;;;;;23.08;9.95;;;;;;;3.87;100.00;101841.16;5233284;28;20778;-74
2022/12/06 06:28:59;;;;;;;23.60;10.25;;;;;;;3.90;100.00;101851.59;5234339;28;20025;-74
2022/12/06 06:31:31;;;;;;;21.80;10.20;;;;;;;3.88;100.00;101847.28;5229858;28;20514;-75
2022/12/06 06:34:02;;;;;;;22.10;10.68;;;;;;;3.87;100.00;101843.81;5235522;28;20047;-74
2022/12/06 06:36:33;;;;;;;21.00;10.30;;;;;;;3.87;100.00;101848.19;5234389;28;20022;-74
2022/12/06 06:39:05;;;;;;;21.55;10.05;;;;;;;3.90;100.00;101840.19;5235258;28;20476;-74
2022/12/06 06:41:36;;;;;;;23.38;11.02;;;;;;;3.86;100.00;101844.69;5236291;28;20480;-74
2022/12/06 06:44:07;;;;;;;20.38;9.77;;;;;;;3.89;100.00;101846.38;5237173;28;20139;-74
2022/12/06 06:46:39;;;;;;;24.23;11.50;;;;;;;3.86;100.00;101841.22;5230038;28;20080;-74
2022/12/06 06:49:11;;;;;;;21.92;11.82;;;;;;;3.83;100.00;101846.56;5232867;28;20061;-74
2022/12/06 06:51:42;;;;;;;19.67;12.15;;;;;;;3.78;100.00;101844.09;5235691;28;20040;-74
2022/12/06 06:54:14;;;;;;;26.20;12.25;;;;;;;3.72;100.00;101837.22;5230462;28;20545;-74
2022/12/06 06:56:45;;;;;;;24.92;12.30;;;;;;;3.66;100.00;101842.72;5232975;28;20163;-74
2022/12/06 06:59:17;;;;;;;23.42;12.40;;;;;;;3.63;100.00;101839.31;5231651;28;20021;-74
2022/12/06 07:01:48;;;;;;;22.48;11.68;;;;;;;3.65;100.00;101834.84;5233131;28;20505;-74
2022/12/06 07:04:19;;;;;;;20.55;10.32;;;;;;;3.59;100.00;101830.63;5232751;28;20025;-74
2022/12/06 07:06:51;;;;;;;24.58;10.15;;;;;;;3.60;100.00;101842.88;5231365;28;20100;-74
2022/12/06 07:09:22;;;;;;;25.33;10.38;;;;;;;3.56;100.00;101840.41;5246868;28;20041;-74
2022/12/06 07:11:53;;;;;;;22.52;10.10;;;;;;;3.53;100.00;101839.59;5228904;28;20032;-75
2022/12/06 07:14:25;;;;;;;20.98;10.05;;;;;;;3.49;100.00;101847.63;5229088;28;20044;-74
2022/12/06 07:16:56;;;;;;;20.20;9.63;;;;;;;3.47;100.00;101839.78;5232353;28;20022;-74
2022/12/06 07:19:27;;;;;;;20.35;10.15;;;;;;;3.41;100.00;101849.63;5227289;28;20079;-75
2022/12/06 07:21:59;;;;;;;21.48;10.32;;;;;;;3.35;100.00;101845.41;5231620;28;20033;-74
2022/12/06 07:24:30;;;;;;;19.02;10.15;;;;;;;3.30;100.00;101845.56;5231497;28;20242;-74
2022/12/06 07:27:01;;;;;;;23.48;10.68;;;;;;;3.28;100.00;101849.13;5231534;28;20071;-74
2022/12/06 07:29:32;;;;;;;18.52;10.77;;;;;;;3.25;100.00;101846.59;5232499;28;20033;-74
2022/12/06 07:32:04;;;;;;;23.05;12.30;;;;;;;3.24;100.00;101850.13;5231948;28;20040;-74
2022/12/06 07:34:35;;;;;;;19.67;10.88;;;;;;;3.25;100.00;101855.38;5228877;28;20136;-74
2022/12/06 07:37:06;;;;;;;18.08;10.32;;;;;;;3.25;100.00;101843.97;5233339;28;20036;-74
2022/12/06 07:39:38;;;;;;;20.08;10.60;;;;;;;3.26;100.00;101849.22;5232156;28;20025;-74
2022/12/06 07:45:07;;;;;;;19.52;10.38;;;;;;;3.29;100.00;101851.72;5216786;28;20045;-74
2022/12/06 07:47:41;;;;;;;20.38;10.27;;;;;;;3.28;100.00;101851.78;5230874;28;20049;-75
2022/12/06 07:50:18;;;;;;;21.27;10.27;;;;;;;3.30;100.00;101858.75;5231788;28;20029;-74
2022/12/06 07:52:50;;;;;;;19.85;9.55;;;;;;;3.31;100.00;101857.81;5231863;28;20539;-74
2022/12/06 07:55:21;;;;;;;19.90;9.70;;;;;;;3.32;100.00;101869.25;5230138;28;20059;-75
2022/12/06 07:57:52;;;;;;;20.08;9.85;;;;;;;3.31;100.00;101864.88;5231767;28;20498;-74
2022/12/06 08:00:25;;;;;;;20.00;9.38;;;;;;;3.30;100.00;101865.81;5232925;28;20025;-74
2022/12/06 08:02:56;;;;;;;18.77;9.57;;;;;;;3.30;100.00;101863.16;5231082;28;20030;-74
2022/12/06 08:05:27;;;;;;;17.52;9.00;;;;;;;3.30;100.00;101866.66;5230297;28;20034;-74
2022/12/06 08:07:59;;;;;;;19.50;8.52;;;;;;;3.31;100.00;101876.28;5233553;28;20487;-74
2022/12/06 08:10:30;;;;;;;18.50;9.13;;;;;;;3.32;100.00;101869.25;5234098;28;20120;-74
2022/12/06 08:13:02;;;;;;;23.10;10.48;;;;;;;3.32;100.00;101872.75;5234974;28;20063;-74
2022/12/06 08:15:35;;;;;;;17.00;9.80;;;;;;;3.32;100.00;101867.47;5233704;28;20037;-74
2022/12/06 08:18:06;;;;;;;20.48;9.82;;;;;;;3.36;100.00;101867.38;5236602;28;20041;-75
2022/12/06 08:20:38;;;;;;;22.00;10.25;;;;;;;3.37;100.00;101869.13;5233482;28;20030;-75
2022/12/06 08:23:09;;;;;;;21.23;10.85;;;;;;;3.39;100.00;101865.50;5229527;28;20033;-75
2022/12/06 08:25:40;;;;;;;22.30;10.77;;;;;;;3.41;100.00;101874.25;5232788;28;20472;-75
2022/12/06 08:28:11;;;;;;;21.08;11.38;;;;;;;3.42;100.00;101872.50;5236007;28;20025;-74
2022/12/06 08:30:43;;;;;;;23.10;11.07;;;;;;;3.44;100.00;101870.66;5234363;28;20525;-74
2022/12/06 08:33:14;;;;;;;17.48;10.02;;;;;;;3.48;100.00;101867.03;5233406;28;20029;-76
2022/12/06 08:35:47;;;;;;;23.98;11.23;;;;;;;3.50;100.00;101871.31;5230005;28;20035;-73
2022/12/06 08:38:18;;;;;;;20.25;10.52;;;;;;;3.52;100.00;101868.66;5235429;28;20766;-74
2022/12/06 08:40:49;;;;;;;22.08;10.43;;;;;;;3.52;100.00;101871.28;5236238;28;20124;-74
2022/12/06 08:43:21;;;;;;;17.85;9.15;;;;;;;3.50;100.00;101870.47;5234282;28;20033;-75
2022/12/06 08:45:52;;;;;;;16.48;8.50;;;;;;;3.47;100.00;101878.47;5227800;28;20045;-74
2022/12/06 08:48:23;;;;;;;19.15;8.27;;;;;;;3.44;100.00;101868.88;5236970;28;20040;-74
2022/12/06 08:50:55;;;;;;;14.48;8.30;;;;;;;3.48;100.00;101875.78;5230184;28;20153;-74
2022/12/06 08:53:27;;;;;;;15.85;8.25;;;;;;;3.43;100.00;101872.44;5230246;28;20034;-74
2022/12/06 08:55:58;;;;;;;15.10;8.05;;;;;;;3.42;100.00;101875.97;5231040;28;20414;-74
2022/12/06 08:58:29;;;;;;;17.23;8.02;;;;;;;3.40;100.00;101879.59;5231655;28;20387;-74
2022/12/06 09:01:12;;;;;;;13.27;7.38;;;;;;;3.39;100.00;101883.13;5231422;28;20076;-74
2022/12/06 09:03:44;;;;;;;18.88;10.68;;;;;;;3.38;100.00;101884.03;5224769;28;20034;-74
2022/12/06 09:06:16;;;;;;;19.60;10.73;;;;;;;3.35;100.00;101892.88;5228780;28;20029;-74
2022/12/06 09:08:48;;;;;;;21.45;10.95;;;;;;;3.29;100.00;101891.28;5229653;28;20447;-74
2022/12/06 09:11:19;;;;;;;20.38;11.15;;;;;;;3.28;100.00;101886.06;5233576;28;20116;-74
2022/12/06 09:13:50;;;;;;;20.50;10.20;;;;;;;3.27;100.00;101889.63;5228845;28;20556;-74
2022/12/06 09:16:22;;;;;;;24.08;12.25;;;;;;;3.24;100.00;101887.06;5232118;28;20038;-75
2022/12/06 09:18:54;;;;;;;18.13;9.98;;;;;;;3.23;100.00;101893.25;5231785;28;20025;-75
2022/12/06 09:21:31;;;;;;;17.65;10.18;;;;;;;3.20;100.00;101894.19;5232379;28;20392;-75
2022/12/06 09:24:03;;;;;;;19.80;10.02;;;;;;;3.21;100.00;101895.09;5231328;28;20496;-75
2022/12/06 09:26:35;;;;;;;18.63;10.23;;;;;;;3.21;100.00;101900.34;5228360;28;20117;-75
2022/12/06 09:29:07;;;;;;;19.88;10.05;;;;;;;3.21;100.00;101893.31;5232332;28;20535;-75
2022/12/06 09:31:39;;;;;;;17.02;9.80;;;;;;;3.23;100.00;101893.25;5231377;28;20026;-75
2022/12/06 09:34:11;;;;;;;19.23;9.90;;;;;;;3.22;100.00;101892.41;5230686;28;20103;-75
2022/12/06 09:36:48;;;;;;;21.17;8.50;;;;;;;3.25;100.00;101894.94;5228870;28;20322;-75
2022/12/06 09:39:30;;;;;;;17.27;8.50;;;;;;;3.35;100.00;101900.81;5236703;28;20095;-75
2022/12/06 09:42:30;;;;;;;15.48;8.45;;;;;;;3.28;100.00;101894.88;5234808;28;20802;-75
2022/12/06 09:45:10;;;;;;;18.25;8.23;;;;;;;3.30;100.00;101897.47;5230623;28;20435;-75
2022/12/06 09:48:05;;;;;;;19.15;9.13;;;;;;;3.35;100.00;101900.81;5226219;28;20026;-75
2022/12/06 09:51:04;;;;;;;14.95;8.27;;;;;;;3.37;100.00;101898.13;5224686;28;20037;-75
2022/12/06 09:54:00;;;;;;;16.40;7.85;;;;;;;3.42;100.00;101898.88;5223914;28;20034;-75
2022/12/06 09:56:44;;;;;;;16.75;8.02;;;;;;;3.40;100.00;101893.63;5231965;28;20056;-75
2022/12/06 09:59:49;;;;;;;23.85;8.85;;;;;;;3.43;100.00;101905.84;5236455;28;20510;-75
2022/12/06 10:02:37;;;;;;;19.57;8.93;;;;;;;3.46;100.00;101904.00;5254857;28;20033;-74
2022/12/06 10:05:22;;;;;;;21.80;9.00;;;;;;;3.48;100.00;101906.59;5233684;28;20076;-75
2022/12/06 10:07:59;;;;;;;19.77;8.48;;;;;;;3.51;100.00;101898.59;5231600;28;20036;-76
2022/12/06 10:10:52;;;;;;;22.33;10.52;;;;;;;3.51;100.00;101898.59;5234833;28;20113;-74
2022/12/06 10:13:45;;;;;;;17.90;9.43;;;;;;;3.59;100.00;101899.22;5227108;28;20758;-75
2022/12/06 10:16:35;;;;;;;24.67;10.30;;;;;;;3.66;100.00;101897.25;5223643;28;20127;-76
2022/12/06 10:19:15;;;;;;;22.30;9.80;;;;;;;3.65;100.00;101883.19;5234328;28;20400;-76
2022/12/06 10:22:21;;;;;;;19.80;9.88;;;;;;;3.69;100.00;101886.59;5232407;28;20034;-76
2022/12/06 10:25:07;;;;;;;18.98;10.18;;;;;;;3.69;100.00;101886.59;5213466;28;20029;-76
2022/12/06 10:28:00;;;;;;;16.10;9.48;;;;;;;3.71;100.00;101882.16;5261043;28;20040;-74
2022/12/06 10:30:37;;;;;;;19.88;9.50;;;;;;;3.71;100.00;101879.50;5233220;28;20116;-75
2022/12/06 10:33:44;;;;;;;18.00;10.27;;;;;;;3.72;100.00;101882.09;5233672;28;20463;-76
2022/12/06 10:36:25;;;;;;;17.23;9.48;;;;;;;3.73;100.00;101872.41;5232809;28;20044;-74
2022/12/06 10:39:05;;;;;;;19.65;9.65;;;;;;;3.83;100.00;101880.88;5228308;28;20020;-74
2022/12/06 10:41:45;;;;;;;16.33;9.18;;;;;;;3.86;100.00;101886.94;5238487;28;20029;-74
2022/12/06 10:44:25;;;;;;;15.73;9.35;;;;;;;3.94;100.00;101884.06;5227528;28;20033;-75
2022/12/06 10:47:11;;;;;;;16.15;8.05;;;;;;;3.96;100.00;101884.88;5232803;28;20060;-75
2022/12/06 10:50:02;;;;;;;14.70;8.05;;;;;;;3.99;100.00;101894.47;5228478;28;20033;-75
2022/12/06 10:52:41;;;;;;;16.00;7.70;;;;;;;4.02;100.00;101884.66;5239614;28;20022;-74
2022/12/06 10:55:23;;;;;;;14.35;7.15;;;;;;;4.00;100.00;101886.50;5228165;28;20460;-75
2022/12/06 10:58:15;;;;;;;12.10;5.97;;;;;;;4.00;100.00;101886.50;5226356;28;20734;-75
2022/12/06 11:00:56;;;;;;;11.15;5.85;;;;;;;4.00;100.00;101890.91;5228404;28;20025;-75
2022/12/06 11:03:35;;;;;;;12.60;6.07;;;;;;;3.98;100.00;101885.69;5236471;28;20094;-75
2022/12/06 11:06:15;;;;;;;10.77;5.90;;;;;;;4.01;100.00;101882.94;5232778;28;20029;-75
2022/12/06 11:08:58;;;;;;;11.98;5.53;;;;;;;4.03;100.00;101885.56;5237085;28;20053;-75
2022/12/06 11:11:33;;;;;;;8.98;4.93;;;;;;;4.02;100.00;101882.03;5250495;28;20397;-75
2022/12/06 11:14:15;;;;;;;12.73;5.70;;;;;;;4.05;100.00;101889.00;5234158;28;20049;-75
2022/12/06 11:16:54;;;;;;;8.65;5.05;;;;;;;4.05;100.00;101884.56;5242221;28;20033;-75
2022/12/06 11:19:33;;;;;;;7.85;4.82;;;;;;;4.05;100.00;101881.94;5232873;28;20053;-75
2022/12/06 11:22:34;;;;;;;11.75;5.47;;;;;;;4.10;100.00;101882.66;5234839;28;20044;-75
2022/12/06 11:25:21;;;;;;;8.02;4.38;;;;;;;4.15;100.00;101877.22;5231475;28;20032;-75
2022/12/06 11:27:59;;;;;;;9.38;4.85;;;;;;;4.20;100.00;101874.41;5233032;28;20021;-75
2022/12/06 11:30:32;;;;;;;7.18;4.03;;;;;;;4.26;100.00;101876.88;5233951;28;20029;-75
2022/12/06 11:33:04;;;;;;;9.18;3.53;;;;;;;4.24;100.00;101871.63;5234236;28;20388;-75
2022/12/06 11:35:35;;;;;;;9.85;3.90;;;;;;;4.27;100.00;101878.56;5236495;28;20080;-75
2022/12/06 11:38:07;;;;;;;8.02;3.67;;;;;;;4.32;100.00;101866.94;5229769;28;20033;-75
2022/12/06 11:40:45;;;;;;;7.35;3.67;;;;;;;4.37;100.00;101871.19;5233309;28;20048;-75
2022/12/06 11:43:24;;;;;;;7.25;3.80;;;;;;;4.43;100.00;101856.03;5237066;28;20510;-75
2022/12/06 11:45:56;;;;;;;6.63;3.53;;;;;;;4.47;100.00;101856.78;5235979;28;20028;-75
2022/12/06 11:48:32;;;;;;;6.13;3.05;;;;;;;4.53;100.00;101851.28;5234326;28;20082;-75
2022/12/06 11:51:06;;;;;;;7.32;2.75;;;;;;;4.57;100.00;101849.38;5232343;28;20508;-75
2022/12/06 11:53:44;;;;;;;8.40;3.60;;;;;;;4.66;100.00;101846.41;5233396;28;20029;-77
2022/12/06 11:56:23;;;;;;;7.63;2.97;;;;;;;4.62;100.00;101844.78;5230878;28;20045;-75
2022/12/06 11:59:07;;;;;;;7.03;3.30;;;;;;;4.64;100.00;101841.19;5230748;28;20375;-76
2022/12/06 12:01:47;;;;;;;8.50;2.90;;;;;;;4.66;100.00;101839.34;5221340;28;20064;-76
2022/12/06 12:04:40;;;;;;;9.48;3.00;;;;;;;4.62;100.00;101836.84;5224294;28;20025;-76
2022/12/06 12:07:16;;;;;;;6.57;2.60;;;;;;;4.61;100.00;101833.34;5226299;28;20455;-76
2022/12/06 12:10:20;;;;;;;7.85;2.70;;;;;;;4.63;100.00;101828.03;5219318;28;20029;-77
2022/12/06 12:15:50;;;;;;;5.40;2.22;;;;;;;4.55;100.00;101822.16;5225423;28;20135;-76
2022/12/06 12:18:29;;;;;;;8.00;2.75;;;;;;;4.51;100.00;101824.03;5223436;28;20572;-76
2022/12/06 12:21:01;;;;;;;8.55;2.72;;;;;;;4.51;100.00;101824.03;5221749;28;20059;-76
2022/12/06 12:23:37;;;;;;;8.95;2.88;;;;;;;4.50;100.00;101817.88;5220341;28;20029;-76